createdAt,value
2019-03-09T00:00:24.374Z,6.38
2019-03-09T00:05:24.372Z,6.25
2019-03-09T00:10:24.324Z,6.25
2019-03-09T00:15:24.379Z,6.25
2019-03-09T00:20:24.369Z,6.25
2019-03-09T00:25:24.331Z,6.19
2019-03-09T00:30:24.410Z,6.19
2019-03-09T00:35:24.365Z,6.13
2019-03-09T00:40:24.377Z,6.13
2019-03-09T00:45:24.375Z,6.13
2019-03-09T00:50:24.368Z,6.13
2019-03-09T00:55:24.383Z,6.13
2019-03-09T01:00:24.395Z,6.19
2019-03-09T01:05:24.372Z,6.19
2019-03-09T01:10:24.393Z,6.31
2019-03-09T01:15:24.386Z,6.31
2019-03-09T01:20:24.378Z,6.38
2019-03-09T01:25:24.423Z,6.38
2019-03-09T01:30:24.395Z,6.44
2019-03-09T01:35:24.386Z,6.44
2019-03-09T01:40:24.388Z,6.44
2019-03-09T01:45:24.332Z,6.44
2019-03-09T01:50:24.375Z,6.44
2019-03-09T01:55:24.459Z,6.5
2019-03-09T02:00:24.343Z,6.5
2019-03-09T02:05:24.381Z,6.56
2019-03-09T02:10:24.379Z,6.56
2019-03-09T02:15:24.378Z,6.56
2019-03-09T02:20:24.372Z,6.56
2019-03-09T02:25:24.381Z,6.63
2019-03-09T02:30:24.399Z,6.63
2019-03-09T02:35:24.393Z,6.63
2019-03-09T02:40:24.384Z,6.63
2019-03-09T02:45:24.387Z,6.56
2019-03-09T02:50:24.372Z,6.56
2019-03-09T02:55:24.387Z,6.56
2019-03-09T03:00:24.423Z,6.63
2019-03-09T03:05:24.396Z,6.63
2019-03-09T03:10:24.385Z,6.56
2019-03-09T03:15:24.435Z,6.56
2019-03-09T03:20:24.382Z,6.56
2019-03-09T03:25:24.387Z,6.63
2019-03-09T03:30:24.440Z,6.69
2019-03-09T03:35:24.357Z,6.69
2019-03-09T03:40:24.423Z,6.69
2019-03-09T03:45:24.394Z,6.63
2019-03-09T03:50:24.402Z,6.56
2019-03-09T03:55:24.432Z,6.5
2019-03-09T04:00:24.476Z,6.5
2019-03-09T04:05:24.397Z,6.63
2019-03-09T04:10:24.390Z,6.63
2019-03-09T04:15:24.348Z,6.56
2019-03-09T04:20:24.378Z,6.56
2019-03-09T04:25:24.441Z,6.5
2019-03-09T04:30:24.349Z,6.5
2019-03-09T04:35:24.430Z,6.5
2019-03-09T04:40:24.392Z,6.5
2019-03-09T04:45:24.434Z,6.5
2019-03-09T04:50:24.400Z,6.5
2019-03-09T04:55:24.407Z,6.5
2019-03-09T05:00:24.397Z,6.5
2019-03-09T05:05:24.350Z,6.56
2019-03-09T05:10:24.366Z,6.56
2019-03-09T05:15:24.414Z,6.56
2019-03-09T05:20:24.384Z,6.56
2019-03-09T05:25:24.386Z,6.56
2019-03-09T05:30:24.407Z,6.56
2019-03-09T05:35:24.401Z,6.69
2019-03-09T05:40:24.395Z,6.63
2019-03-09T05:45:24.405Z,6.5
2019-03-09T05:50:24.383Z,6.5
2019-03-09T05:55:24.359Z,6.44
2019-03-09T06:00:24.405Z,6.38
2019-03-09T06:05:24.413Z,6.25
2019-03-09T06:10:24.401Z,6.25
2019-03-09T06:15:24.480Z,6.19
2019-03-09T06:20:24.418Z,6.19
2019-03-09T06:25:24.423Z,6.13
2019-03-09T06:30:24.405Z,6.13
2019-03-09T06:35:24.408Z,6.19
2019-03-09T06:40:24.407Z,6.25
2019-03-09T06:45:24.446Z,6.38
2019-03-09T06:50:24.359Z,6.5
2019-03-09T06:55:24.403Z,6.63
2019-03-09T07:00:24.396Z,6.69
2019-03-09T07:05:24.415Z,6.81
2019-03-09T07:10:24.428Z,6.81
2019-03-09T07:15:24.365Z,6.75
2019-03-09T07:20:24.392Z,6.81
2019-03-09T07:25:24.445Z,6.94
2019-03-09T07:30:24.403Z,7
2019-03-09T07:35:24.453Z,7
2019-03-09T07:40:24.369Z,7.06
2019-03-09T07:45:24.414Z,7.25
2019-03-09T07:50:24.432Z,7.38
2019-03-09T07:55:24.490Z,7.69
2019-03-09T08:00:24.421Z,8.19
2019-03-09T08:05:24.412Z,9
2019-03-09T08:10:24.366Z,9.13
2019-03-09T08:15:24.426Z,9.5
2019-03-09T08:20:24.467Z,9.44
2019-03-09T08:25:24.433Z,9.63
2019-03-09T08:30:24.400Z,9.69
2019-03-09T08:35:24.447Z,9.56
2019-03-09T08:40:24.420Z,9.19
2019-03-09T08:45:24.459Z,8.94
2019-03-09T08:50:24.501Z,8.88
2019-03-09T08:55:24.412Z,8.94
2019-03-09T09:00:24.472Z,9.25
2019-03-09T09:05:24.416Z,9.94
2019-03-09T09:10:24.403Z,10.13
2019-03-09T09:15:24.396Z,10.25
2019-03-09T09:20:24.418Z,10.31
2019-03-09T09:25:24.434Z,10.63
2019-03-09T09:30:24.413Z,10.88
2019-03-09T09:35:24.419Z,10.5
2019-03-09T09:40:24.449Z,10.31
2019-03-09T09:45:24.420Z,10.38
2019-03-09T09:50:24.415Z,10.5
2019-03-09T09:55:24.507Z,10.75
2019-03-09T10:00:24.469Z,10.63
2019-03-09T10:05:24.421Z,10.69
2019-03-09T10:10:24.424Z,10.75
2019-03-09T10:15:24.461Z,10.88
2019-03-09T10:20:24.420Z,10.88
2019-03-09T10:25:24.415Z,10.94
2019-03-09T10:30:24.418Z,11.13
2019-03-09T10:35:24.433Z,11.31
2019-03-09T10:40:24.462Z,11.25
2019-03-09T10:45:24.383Z,11.44
2019-03-09T10:50:25.952Z,11.63
2019-03-09T10:55:24.461Z,11.75
2019-03-09T11:00:24.425Z,11.81
2019-03-09T11:05:24.412Z,11.81
2019-03-09T11:10:24.462Z,11.69
2019-03-09T11:15:24.382Z,11.69
2019-03-09T11:20:24.444Z,11.69
2019-03-09T11:25:24.426Z,11.69
2019-03-09T11:30:24.419Z,11.69
2019-03-09T11:35:24.424Z,11.81
2019-03-09T11:40:24.479Z,11.88
2019-03-09T11:45:24.390Z,12
2019-03-09T11:50:24.473Z,12
2019-03-09T11:55:24.436Z,11.88
2019-03-09T12:00:24.430Z,11.75
2019-03-09T12:05:24.428Z,11.56
2019-03-09T12:10:24.387Z,11.56
2019-03-09T12:15:24.437Z,11.69
2019-03-09T12:20:24.485Z,11.94
2019-03-09T12:25:24.467Z,12.06
2019-03-09T12:30:24.453Z,11.94
2019-03-09T12:35:24.442Z,11.81
2019-03-09T12:40:24.430Z,11.75
2019-03-09T12:45:24.427Z,11.75
2019-03-09T12:50:24.497Z,11.75
2019-03-09T12:55:24.464Z,11.69
2019-03-09T13:00:24.602Z,11.63
2019-03-09T13:05:24.438Z,11.13
2019-03-09T13:10:24.456Z,10.5
2019-03-09T13:15:24.521Z,10.88
2019-03-09T13:20:24.451Z,11.19
2019-03-09T13:25:24.434Z,11.38
2019-03-09T13:30:24.451Z,11.44
2019-03-09T13:35:24.442Z,11.5
2019-03-09T13:40:24.434Z,11.56
2019-03-09T13:45:24.441Z,11.75
2019-03-09T13:50:24.433Z,11.81
2019-03-09T13:55:24.434Z,11.88
2019-03-09T14:00:24.400Z,11.88
2019-03-09T14:05:24.453Z,12
2019-03-09T14:10:24.448Z,12.06
2019-03-09T14:15:24.394Z,12
2019-03-09T14:20:24.531Z,11.88
2019-03-09T14:25:24.453Z,11.81
2019-03-09T14:30:24.443Z,11.81
2019-03-09T14:35:24.559Z,11.88
2019-03-09T14:40:24.552Z,11.94
2019-03-09T14:45:24.499Z,12.13
2019-03-09T14:50:24.401Z,12.25
2019-03-09T14:55:24.446Z,12.25
2019-03-09T15:00:24.434Z,12.19
2019-03-09T15:05:24.451Z,11.5
2019-03-09T15:10:24.455Z,11.31
2019-03-09T15:15:24.445Z,11.44
2019-03-09T15:20:24.445Z,11.63
2019-03-09T15:25:24.528Z,12.06
2019-03-09T15:30:24.499Z,12.13
2019-03-09T15:35:24.448Z,12.19
2019-03-09T15:40:24.461Z,12.19
2019-03-09T15:45:24.450Z,12.06
2019-03-09T15:50:24.448Z,11.94
2019-03-09T15:55:24.440Z,11.81
2019-03-09T16:00:24.451Z,11.75
2019-03-09T16:05:24.410Z,11.44
2019-03-09T16:10:24.488Z,11.31
2019-03-09T16:15:24.409Z,11.25
2019-03-09T16:20:24.456Z,11.19
2019-03-09T16:25:24.481Z,11.13
2019-03-09T16:30:24.406Z,11
2019-03-09T16:35:26.079Z,10.81
2019-03-09T16:40:24.471Z,10.63
2019-03-09T16:45:24.445Z,10.5
2019-03-09T16:50:24.478Z,10.44
2019-03-09T16:55:24.456Z,10.44
2019-03-09T17:00:24.467Z,10.31
2019-03-09T17:05:24.454Z,10.13
2019-03-09T17:10:24.502Z,10.06
2019-03-09T17:15:24.497Z,10
2019-03-09T17:20:24.403Z,9.94
2019-03-09T17:25:24.454Z,8.63
2019-03-09T17:30:24.467Z,8.56
2019-03-09T17:35:24.466Z,8.69
2019-03-09T17:40:24.449Z,8.81
2019-03-09T17:45:24.455Z,8.81
2019-03-09T17:50:24.422Z,8.69
2019-03-09T17:55:24.473Z,8.31
2019-03-09T18:00:24.458Z,7.94
2019-03-09T18:05:24.505Z,7.63
2019-03-09T18:10:24.464Z,7.69
2019-03-09T18:15:24.474Z,7.63
2019-03-09T18:20:24.450Z,7.63
2019-03-09T18:25:24.450Z,7.69
2019-03-09T18:30:24.453Z,7.63
2019-03-09T18:35:24.418Z,7.63
2019-03-09T18:40:24.468Z,7.63
2019-03-09T18:45:24.424Z,7.56
2019-03-09T18:50:24.451Z,7.56
2019-03-09T18:55:24.423Z,7.56
2019-03-09T19:00:24.452Z,7.63
2019-03-09T19:05:24.468Z,7.56
2019-03-09T19:10:24.429Z,7.44
2019-03-09T19:15:24.481Z,7.44
2019-03-09T19:20:24.482Z,7.38
2019-03-09T19:25:24.465Z,7.25
2019-03-09T19:30:24.477Z,7.31
2019-03-09T19:35:24.482Z,7.31
2019-03-09T19:40:24.465Z,7.31
2019-03-09T19:45:24.463Z,7.13
2019-03-09T19:50:24.551Z,7.06
2019-03-09T19:55:24.421Z,7
2019-03-09T20:00:24.463Z,6.94
2019-03-09T20:05:29.443Z,6.94
2019-03-09T20:10:24.571Z,6.88
2019-03-09T20:15:24.483Z,6.88
2019-03-09T20:20:24.460Z,6.81
2019-03-09T20:25:24.498Z,6.63
2019-03-09T20:30:24.556Z,6.56
2019-03-09T20:35:24.430Z,6.5
2019-03-09T20:40:24.465Z,6.38
2019-03-09T20:45:24.468Z,6.19
2019-03-09T20:50:24.607Z,6.25
2019-03-09T20:55:24.930Z,6.13
2019-03-09T21:00:24.932Z,6.13
2019-03-09T21:05:24.936Z,6.13
2019-03-09T21:10:24.923Z,6.13
2019-03-09T21:15:24.944Z,6.13
2019-03-09T21:20:25.003Z,6
2019-03-09T21:25:24.931Z,5.88
2019-03-09T21:30:25.095Z,5.81
2019-03-09T21:35:25.117Z,5.81
2019-03-09T21:40:25.134Z,5.81
2019-03-09T21:45:25.017Z,5.69
2019-03-09T21:50:24.920Z,5.69
2019-03-09T21:55:25.041Z,5.63
2019-03-09T22:00:24.960Z,5.63
2019-03-09T22:05:24.915Z,5.56
2019-03-09T22:10:24.952Z,5.56
2019-03-09T22:15:25.043Z,5.5
2019-03-09T22:20:24.960Z,5.56
2019-03-09T22:25:24.950Z,5.56
2019-03-09T22:30:25.044Z,5.5
2019-03-09T22:35:24.964Z,5.5
2019-03-09T22:40:24.925Z,5.5
2019-03-09T22:45:24.978Z,5.44
2019-03-09T22:50:24.964Z,5.5
2019-03-09T22:55:24.982Z,5.5
2019-03-09T23:00:25.001Z,5.44
2019-03-09T23:05:24.978Z,5.38
2019-03-09T23:10:24.982Z,5.38
2019-03-09T23:15:25.009Z,5.31
2019-03-09T23:20:25.005Z,5.25
2019-03-09T23:25:24.982Z,5.19
2019-03-09T23:30:25.070Z,5.19
2019-03-09T23:35:25.171Z,5.19
2019-03-09T23:40:25.094Z,5.19
2019-03-09T23:45:25.003Z,5.13
2019-03-09T23:50:25.012Z,5.06
2019-03-09T23:55:25.008Z,5.06
